sensor_id;sensor_type;location;lat;lon;timestamp;P1;durP1;ratioP1;P2;durP2;ratioP2
18280;SDS011;9266;51.132;17.062;2022-08-02T00:43:13;5.33;;;4.63;;
18280;SDS011;9266;51.132;17.062;2022-08-02T00:45:54;4.97;;;4.47;;
18280;SDS011;9266;51.132;17.062;2022-08-02T00:48:35;5.23;;;4.47;;
18280;SDS011;9266;51.132;17.062;2022-08-02T00:51:16;5.00;;;4.40;;
18280;SDS011;9266;51.132;17.062;2022-08-02T00:53:57;5.23;;;4.83;;
18280;SDS011;9266;51.132;17.062;2022-08-02T00:56:38;4.77;;;4.37;;
18280;SDS011;9266;51.132;17.062;2022-08-02T04:50:58;8.47;;;6.10;;
18280;SDS011;9266;51.132;17.062;2022-08-02T04:53:39;7.07;;;6.10;;
18280;SDS011;9266;51.132;17.062;2022-08-02T04:56:20;8.57;;;6.13;;
18280;SDS011;9266;51.132;17.062;2022-08-02T04:59:01;6.90;;;5.53;;
18280;SDS011;9266;51.132;17.062;2022-08-02T05:01:41;6.22;;;5.63;;
18280;SDS011;9266;51.132;17.062;2022-08-02T05:04:08;6.70;;;5.55;;
18280;SDS011;9266;51.132;17.062;2022-08-02T05:09:47;7.40;;;5.75;;
18280;SDS011;9266;51.132;17.062;2022-08-02T05:12:28;6.60;;;5.97;;
18280;SDS011;9266;51.132;17.062;2022-08-02T05:15:12;8.90;;;5.85;;
18280;SDS011;9266;51.132;17.062;2022-08-02T05:17:55;6.18;;;5.43;;
18280;SDS011;9266;51.132;17.062;2022-08-02T05:20:36;7.00;;;5.43;;
18280;SDS011;9266;51.132;17.062;2022-08-02T06:01:15;7.20;;;5.60;;
18280;SDS011;9266;51.132;17.062;2022-08-02T06:03:51;8.07;;;5.30;;
18280;SDS011;9266;51.132;17.062;2022-08-02T06:06:19;6.55;;;4.95;;
18280;SDS011;9266;51.132;17.062;2022-08-02T06:08:49;6.28;;;5.20;;
18280;SDS011;9266;51.132;17.062;2022-08-02T06:11:20;6.47;;;5.07;;
18280;SDS011;9266;51.132;17.062;2022-08-02T06:13:48;6.15;;;4.88;;
18280;SDS011;9266;51.132;17.062;2022-08-02T06:16:19;5.50;;;4.90;;
18280;SDS011;9266;51.132;17.062;2022-08-02T06:18:46;6.20;;;4.80;;
18280;SDS011;9266;51.132;17.062;2022-08-02T06:21:14;5.82;;;4.82;;
18280;SDS011;9266;51.132;17.062;2022-08-02T06:23:46;7.07;;;5.55;;
18280;SDS011;9266;51.132;17.062;2022-08-02T06:26:13;5.88;;;5.10;;
18280;SDS011;9266;51.132;17.062;2022-08-02T06:28:43;8.35;;;5.78;;
18280;SDS011;9266;51.132;17.062;2022-08-02T06:31:11;7.25;;;5.60;;
18280;SDS011;9266;51.132;17.062;2022-08-02T06:33:41;7.45;;;5.28;;
18280;SDS011;9266;51.132;17.062;2022-08-02T06:36:09;5.78;;;5.13;;
18280;SDS011;9266;51.132;17.062;2022-08-02T06:38:42;5.53;;;4.93;;
18280;SDS011;9266;51.132;17.062;2022-08-02T06:41:14;5.72;;;5.07;;
18280;SDS011;9266;51.132;17.062;2022-08-02T06:43:43;6.75;;;5.25;;
18280;SDS011;9266;51.132;17.062;2022-08-02T06:46:16;6.20;;;5.40;;
18280;SDS011;9266;51.132;17.062;2022-08-02T06:48:44;6.25;;;5.20;;
18280;SDS011;9266;51.132;17.062;2022-08-02T06:51:12;9.05;;;5.13;;
18280;SDS011;9266;51.132;17.062;2022-08-02T06:53:39;5.07;;;4.57;;
18280;SDS011;9266;51.132;17.062;2022-08-02T06:56:06;4.80;;;4.40;;
18280;SDS011;9266;51.132;17.062;2022-08-02T06:58:33;6.03;;;4.50;;
18280;SDS011;9266;51.132;17.062;2022-08-02T07:01:01;5.65;;;4.63;;
18280;SDS011;9266;51.132;17.062;2022-08-02T07:03:31;6.40;;;4.53;;
18280;SDS011;9266;51.132;17.062;2022-08-02T07:06:00;4.65;;;4.25;;
18280;SDS011;9266;51.132;17.062;2022-08-02T07:08:27;5.45;;;4.53;;
18280;SDS011;9266;51.132;17.062;2022-08-02T07:10:56;4.68;;;4.28;;
18280;SDS011;9266;51.132;17.062;2022-08-02T07:13:25;5.15;;;4.10;;
18280;SDS011;9266;51.132;17.062;2022-08-02T07:15:52;7.32;;;4.00;;
18280;SDS011;9266;51.132;17.062;2022-08-02T07:18:19;4.95;;;4.53;;
18280;SDS011;9266;51.132;17.062;2022-08-02T07:20:47;4.50;;;4.10;;
18280;SDS011;9266;51.132;17.062;2022-08-02T07:23:15;4.50;;;3.83;;
18280;SDS011;9266;51.132;17.062;2022-08-02T07:25:42;5.65;;;3.85;;
18280;SDS011;9266;51.132;17.062;2022-08-02T07:28:11;5.00;;;4.15;;
18280;SDS011;9266;51.132;17.062;2022-08-02T07:30:39;4.00;;;3.70;;
18280;SDS011;9266;51.132;17.062;2022-08-02T07:33:07;4.70;;;4.10;;
18280;SDS011;9266;51.132;17.062;2022-08-02T07:35:34;4.22;;;3.83;;
18280;SDS011;9266;51.132;17.062;2022-08-02T07:38:01;4.15;;;3.75;;
18280;SDS011;9266;51.132;17.062;2022-08-02T07:40:30;5.63;;;3.88;;
18280;SDS011;9266;51.132;17.062;2022-08-02T07:42:57;4.82;;;4.00;;
18280;SDS011;9266;51.132;17.062;2022-08-02T07:45:24;3.92;;;3.30;;
18280;SDS011;9266;51.132;17.062;2022-08-02T07:47:52;3.85;;;3.50;;
18280;SDS011;9266;51.132;17.062;2022-08-02T07:50:21;5.20;;;3.70;;
18280;SDS011;9266;51.132;17.062;2022-08-02T07:52:48;4.63;;;3.22;;
18280;SDS011;9266;51.132;17.062;2022-08-02T07:55:15;3.60;;;3.30;;
18280;SDS011;9266;51.132;17.062;2022-08-02T07:57:44;4.38;;;2.97;;
18280;SDS011;9266;51.132;17.062;2022-08-02T08:00:12;3.80;;;3.13;;
18280;SDS011;9266;51.132;17.062;2022-08-02T08:02:41;4.13;;;3.17;;
18280;SDS011;9266;51.132;17.062;2022-08-02T08:05:08;3.20;;;2.90;;
18280;SDS011;9266;51.132;17.062;2022-08-02T08:07:35;3.53;;;2.88;;
18280;SDS011;9266;51.132;17.062;2022-08-02T08:10:03;3.45;;;2.60;;
18280;SDS011;9266;51.132;17.062;2022-08-02T08:12:31;3.42;;;2.53;;
18280;SDS011;9266;51.132;17.062;2022-08-02T08:15:00;5.45;;;2.80;;
18280;SDS011;9266;51.132;17.062;2022-08-02T08:17:27;3.17;;;2.38;;
18280;SDS011;9266;51.132;17.062;2022-08-02T08:19:54;4.78;;;2.58;;
18280;SDS011;9266;51.132;17.062;2022-08-02T08:22:22;2.83;;;2.42;;
18280;SDS011;9266;51.132;17.062;2022-08-02T08:24:49;5.13;;;2.53;;
18280;SDS011;9266;51.132;17.062;2022-08-02T08:27:16;3.00;;;2.42;;
18280;SDS011;9266;51.132;17.062;2022-08-02T08:29:46;2.83;;;2.53;;
18280;SDS011;9266;51.132;17.062;2022-08-02T08:32:15;2.58;;;2.38;;
18280;SDS011;9266;51.132;17.062;2022-08-02T08:34:42;2.55;;;2.20;;
18280;SDS011;9266;51.132;17.062;2022-08-02T08:37:10;2.42;;;2.22;;
18280;SDS011;9266;51.132;17.062;2022-08-02T08:39:37;4.38;;;2.55;;
18280;SDS011;9266;51.132;17.062;2022-08-02T08:42:04;3.83;;;2.45;;
18280;SDS011;9266;51.132;17.062;2022-08-02T08:44:32;3.20;;;2.40;;
18280;SDS011;9266;51.132;17.062;2022-08-02T08:47:00;3.15;;;2.33;;
18280;SDS011;9266;51.132;17.062;2022-08-02T08:49:32;3.60;;;2.05;;
18280;SDS011;9266;51.132;17.062;2022-08-02T08:52:03;2.53;;;2.20;;
18280;SDS011;9266;51.132;17.062;2022-08-02T08:54:31;2.70;;;2.35;;
18280;SDS011;9266;51.132;17.062;2022-08-02T08:56:59;4.82;;;2.50;;
18280;SDS011;9266;51.132;17.062;2022-08-02T08:59:29;4.35;;;1.83;;
18280;SDS011;9266;51.132;17.062;2022-08-02T09:01:56;4.18;;;2.00;;
18280;SDS011;9266;51.132;17.062;2022-08-02T09:04:24;2.13;;;1.90;;
18280;SDS011;9266;51.132;17.062;2022-08-02T09:06:52;4.03;;;2.00;;
18280;SDS011;9266;51.132;17.062;2022-08-02T09:09:19;2.33;;;2.00;;
18280;SDS011;9266;51.132;17.062;2022-08-02T09:11:46;4.75;;;2.45;;
18280;SDS011;9266;51.132;17.062;2022-08-02T09:14:24;2.30;;;2.10;;
18280;SDS011;9266;51.132;17.062;2022-08-02T09:16:52;3.33;;;2.20;;
18280;SDS011;9266;51.132;17.062;2022-08-02T09:19:30;2.35;;;2.00;;
18280;SDS011;9266;51.132;17.062;2022-08-02T09:22:01;3.67;;;2.00;;
18280;SDS011;9266;51.132;17.062;2022-08-02T09:24:29;3.92;;;1.95;;
18280;SDS011;9266;51.132;17.062;2022-08-02T09:27:10;2.25;;;1.95;;
18280;SDS011;9266;51.132;17.062;2022-08-02T09:29:39;3.70;;;1.85;;
18280;SDS011;9266;51.132;17.062;2022-08-02T09:32:06;2.65;;;1.90;;
18280;SDS011;9266;51.132;17.062;2022-08-02T09:34:43;2.40;;;1.90;;
18280;SDS011;9266;51.132;17.062;2022-08-02T09:37:22;6.22;;;2.28;;
18280;SDS011;9266;51.132;17.062;2022-08-02T09:39:50;3.75;;;1.83;;
18280;SDS011;9266;51.132;17.062;2022-08-02T09:42:17;2.20;;;2.00;;
18280;SDS011;9266;51.132;17.062;2022-08-02T09:44:54;2.20;;;2.00;;
18280;SDS011;9266;51.132;17.062;2022-08-02T09:47:22;2.50;;;1.80;;
18280;SDS011;9266;51.132;17.062;2022-08-02T09:49:49;3.83;;;2.10;;
18280;SDS011;9266;51.132;17.062;2022-08-02T09:52:22;4.85;;;1.95;;
18280;SDS011;9266;51.132;17.062;2022-08-02T09:54:51;1.73;;;1.63;;
18280;SDS011;9266;51.132;17.062;2022-08-02T09:57:25;2.65;;;2.00;;
18280;SDS011;9266;51.132;17.062;2022-08-02T09:59:54;2.60;;;1.80;;
18280;SDS011;9266;51.132;17.062;2022-08-02T10:02:22;2.10;;;1.90;;
18280;SDS011;9266;51.132;17.062;2022-08-02T10:04:49;2.33;;;1.80;;
18280;SDS011;9266;51.132;17.062;2022-08-02T10:07:17;2.47;;;1.75;;
18280;SDS011;9266;51.132;17.062;2022-08-02T10:09:45;3.05;;;1.73;;
18280;SDS011;9266;51.132;17.062;2022-08-02T10:12:13;2.55;;;1.90;;
18280;SDS011;9266;51.132;17.062;2022-08-02T10:14:41;2.60;;;1.88;;
18280;SDS011;9266;51.132;17.062;2022-08-02T10:17:09;3.65;;;2.40;;
18280;SDS011;9266;51.132;17.062;2022-08-02T10:19:36;2.83;;;2.05;;
18280;SDS011;9266;51.132;17.062;2022-08-02T10:22:04;3.22;;;1.80;;
18280;SDS011;9266;51.132;17.062;2022-08-02T10:24:35;3.25;;;2.00;;
18280;SDS011;9266;51.132;17.062;2022-08-02T10:27:05;2.17;;;1.98;;
18280;SDS011;9266;51.132;17.062;2022-08-02T10:29:36;1.85;;;1.70;;
18280;SDS011;9266;51.132;17.062;2022-08-02T10:32:05;3.83;;;1.73;;
18280;SDS011;9266;51.132;17.062;2022-08-02T10:34:36;2.10;;;1.90;;
18280;SDS011;9266;51.132;17.062;2022-08-02T10:37:10;2.55;;;1.85;;
18280;SDS011;9266;51.132;17.062;2022-08-02T10:39:38;1.95;;;1.67;;
18280;SDS011;9266;51.132;17.062;2022-08-02T10:42:07;2.45;;;2.03;;
18280;SDS011;9266;51.132;17.062;2022-08-02T10:44:35;1.90;;;1.70;;
18280;SDS011;9266;51.132;17.062;2022-08-02T10:47:19;2.50;;;2.20;;
18280;SDS011;9266;51.132;17.062;2022-08-02T10:49:49;3.22;;;2.20;;
18280;SDS011;9266;51.132;17.062;2022-08-02T10:52:18;2.50;;;1.73;;
18280;SDS011;9266;51.132;17.062;2022-08-02T10:54:50;2.83;;;1.95;;
18280;SDS011;9266;51.132;17.062;2022-08-02T10:57:23;4.10;;;1.95;;
18280;SDS011;9266;51.132;17.062;2022-08-02T10:59:51;3.38;;;2.20;;
18280;SDS011;9266;51.132;17.062;2022-08-02T11:02:38;3.50;;;2.10;;
18280;SDS011;9266;51.132;17.062;2022-08-02T11:05:11;2.92;;;2.10;;
18280;SDS011;9266;51.132;17.062;2022-08-02T11:07:43;2.83;;;2.05;;
18280;SDS011;9266;51.132;17.062;2022-08-02T11:13:11;2.45;;;2.03;;
18280;SDS011;9266;51.132;17.062;2022-08-02T11:21:28;2.95;;;2.00;;
18280;SDS011;9266;51.132;17.062;2022-08-02T11:23:56;5.03;;;2.30;;
18280;SDS011;9266;51.132;17.062;2022-08-02T11:26:51;2.15;;;1.70;;
18280;SDS011;9266;51.132;17.062;2022-08-02T11:29:21;3.30;;;2.20;;
18280;SDS011;9266;51.132;17.062;2022-08-02T11:31:57;3.22;;;1.98;;
18280;SDS011;9266;51.132;17.062;2022-08-02T11:34:24;2.10;;;1.90;;
18280;SDS011;9266;51.132;17.062;2022-08-02T11:36:52;2.25;;;2.00;;
18280;SDS011;9266;51.132;17.062;2022-08-02T11:39:20;2.45;;;1.98;;
18280;SDS011;9266;51.132;17.062;2022-08-02T11:41:48;3.60;;;2.28;;
18280;SDS011;9266;51.132;17.062;2022-08-02T11:44:18;4.50;;;2.00;;
18280;SDS011;9266;51.132;17.062;2022-08-02T11:46:53;4.20;;;2.28;;
18280;SDS011;9266;51.132;17.062;2022-08-02T11:49:21;2.55;;;1.92;;
18280;SDS011;9266;51.132;17.062;2022-08-02T11:51:53;4.05;;;1.90;;
18280;SDS011;9266;51.132;17.062;2022-08-02T11:54:24;2.50;;;1.90;;
18280;SDS011;9266;51.132;17.062;2022-08-02T11:56:53;3.30;;;2.13;;
18280;SDS011;9266;51.132;17.062;2022-08-02T11:59:36;2.80;;;2.10;;
18280;SDS011;9266;51.132;17.062;2022-08-02T12:02:05;3.22;;;1.90;;
18280;SDS011;9266;51.132;17.062;2022-08-02T12:04:34;2.55;;;2.00;;
18280;SDS011;9266;51.132;17.062;2022-08-02T12:07:02;3.67;;;2.00;;
18280;SDS011;9266;51.132;17.062;2022-08-02T12:09:31;2.67;;;2.10;;
18280;SDS011;9266;51.132;17.062;2022-08-02T12:12:01;4.38;;;2.17;;
18280;SDS011;9266;51.132;17.062;2022-08-02T12:14:29;2.72;;;2.20;;
18280;SDS011;9266;51.132;17.062;2022-08-02T12:16:57;2.75;;;2.08;;
18280;SDS011;9266;51.132;17.062;2022-08-02T12:19:44;3.40;;;1.98;;
18280;SDS011;9266;51.132;17.062;2022-08-02T12:22:15;2.67;;;2.00;;
18280;SDS011;9266;51.132;17.062;2022-08-02T12:24:45;2.88;;;2.22;;
18280;SDS011;9266;51.132;17.062;2022-08-02T12:27:27;4.30;;;2.45;;
18280;SDS011;9266;51.132;17.062;2022-08-02T12:29:59;3.80;;;2.13;;
18280;SDS011;9266;51.132;17.062;2022-08-02T12:32:28;2.47;;;2.05;;
18280;SDS011;9266;51.132;17.062;2022-08-02T12:35:01;4.40;;;2.15;;
18280;SDS011;9266;51.132;17.062;2022-08-02T12:37:33;3.65;;;2.15;;
18280;SDS011;9266;51.132;17.062;2022-08-02T12:42:46;2.15;;;1.95;;
18280;SDS011;9266;51.132;17.062;2022-08-02T12:45:14;4.65;;;2.05;;
18280;SDS011;9266;51.132;17.062;2022-08-02T12:47:45;3.60;;;2.03;;
18280;SDS011;9266;51.132;17.062;2022-08-02T12:50:17;3.28;;;2.17;;
18280;SDS011;9266;51.132;17.062;2022-08-02T12:52:46;3.35;;;1.95;;
18280;SDS011;9266;51.132;17.062;2022-08-02T12:55:14;3.33;;;2.00;;
18280;SDS011;9266;51.132;17.062;2022-08-02T12:57:56;2.28;;;2.05;;
18280;SDS011;9266;51.132;17.062;2022-08-02T13:00:25;2.45;;;2.00;;
18280;SDS011;9266;51.132;17.062;2022-08-02T13:02:54;2.72;;;2.00;;
18280;SDS011;9266;51.132;17.062;2022-08-02T13:05:23;2.65;;;2.20;;
18280;SDS011;9266;51.132;17.062;2022-08-02T13:07:55;3.03;;;1.90;;
18280;SDS011;9266;51.132;17.062;2022-08-02T13:10:23;4.18;;;2.20;;
18280;SDS011;9266;51.132;17.062;2022-08-02T13:12:51;2.95;;;1.77;;
18280;SDS011;9266;51.132;17.062;2022-08-02T13:15:19;7.53;;;2.78;;
18280;SDS011;9266;51.132;17.062;2022-08-02T13:17:47;2.63;;;1.73;;
18280;SDS011;9266;51.132;17.062;2022-08-02T13:20:18;2.50;;;2.05;;
18280;SDS011;9266;51.132;17.062;2022-08-02T13:22:47;2.70;;;1.98;;
18280;SDS011;9266;51.132;17.062;2022-08-02T13:25:14;3.22;;;1.95;;
18280;SDS011;9266;51.132;17.062;2022-08-02T13:27:42;3.55;;;2.10;;
18280;SDS011;9266;51.132;17.062;2022-08-02T13:30:09;6.10;;;2.50;;
18280;SDS011;9266;51.132;17.062;2022-08-02T13:32:37;4.25;;;2.03;;
18280;SDS011;9266;51.132;17.062;2022-08-02T13:35:05;3.45;;;2.00;;
18280;SDS011;9266;51.132;17.062;2022-08-02T13:37:34;2.85;;;1.85;;
18280;SDS011;9266;51.132;17.062;2022-08-02T13:40:03;2.25;;;1.92;;
18280;SDS011;9266;51.132;17.062;2022-08-02T13:42:32;3.10;;;2.08;;
18280;SDS011;9266;51.132;17.062;2022-08-02T13:44:59;2.20;;;2.00;;
18280;SDS011;9266;51.132;17.062;2022-08-02T13:47:27;4.43;;;2.38;;
18280;SDS011;9266;51.132;17.062;2022-08-02T13:49:54;2.97;;;2.03;;
18280;SDS011;9266;51.132;17.062;2022-08-02T13:52:21;3.67;;;2.25;;
18280;SDS011;9266;51.132;17.062;2022-08-02T13:54:48;3.45;;;2.33;;
18280;SDS011;9266;51.132;17.062;2022-08-02T13:57:17;2.88;;;2.42;;
18280;SDS011;9266;51.132;17.062;2022-08-02T13:59:45;2.85;;;2.08;;
18280;SDS011;9266;51.132;17.062;2022-08-02T14:02:12;3.88;;;2.17;;
18280;SDS011;9266;51.132;17.062;2022-08-02T14:04:40;4.32;;;2.10;;
18280;SDS011;9266;51.132;17.062;2022-08-02T14:07:07;7.07;;;2.40;;
18280;SDS011;9266;51.132;17.062;2022-08-02T14:09:35;2.83;;;2.33;;
18280;SDS011;9266;51.132;17.062;2022-08-02T14:12:02;2.63;;;2.10;;
18280;SDS011;9266;51.132;17.062;2022-08-02T14:14:30;3.72;;;2.22;;
18280;SDS011;9266;51.132;17.062;2022-08-02T14:16:58;2.88;;;2.13;;
18280;SDS011;9266;51.132;17.062;2022-08-02T14:19:25;2.85;;;2.25;;
18280;SDS011;9266;51.132;17.062;2022-08-02T14:21:52;4.03;;;2.10;;
18280;SDS011;9266;51.132;17.062;2022-08-02T14:24:20;3.42;;;2.28;;
18280;SDS011;9266;51.132;17.062;2022-08-02T14:26:48;5.45;;;2.22;;
18280;SDS011;9266;51.132;17.062;2022-08-02T14:29:17;4.03;;;2.20;;
18280;SDS011;9266;51.132;17.062;2022-08-02T14:31:47;2.80;;;2.55;;
18280;SDS011;9266;51.132;17.062;2022-08-02T14:34:15;3.47;;;2.30;;
18280;SDS011;9266;51.132;17.062;2022-08-02T14:36:43;4.47;;;2.30;;
18280;SDS011;9266;51.132;17.062;2022-08-02T14:39:10;2.67;;;2.47;;
18280;SDS011;9266;51.132;17.062;2022-08-02T14:41:37;3.15;;;2.20;;
18280;SDS011;9266;51.132;17.062;2022-08-02T14:44:04;2.47;;;2.10;;
18280;SDS011;9266;51.132;17.062;2022-08-02T14:46:33;2.78;;;2.10;;
18280;SDS011;9266;51.132;17.062;2022-08-02T14:49:06;2.45;;;2.05;;
18280;SDS011;9266;51.132;17.062;2022-08-02T14:51:34;3.13;;;2.05;;
18280;SDS011;9266;51.132;17.062;2022-08-02T14:54:04;2.50;;;2.30;;
18280;SDS011;9266;51.132;17.062;2022-08-02T14:56:33;3.10;;;2.30;;
18280;SDS011;9266;51.132;17.062;2022-08-02T14:59:00;3.83;;;2.47;;
18280;SDS011;9266;51.132;17.062;2022-08-02T15:01:28;2.90;;;2.08;;
18280;SDS011;9266;51.132;17.062;2022-08-02T15:03:56;3.85;;;2.40;;
18280;SDS011;9266;51.132;17.062;2022-08-02T15:06:35;3.70;;;2.22;;
18280;SDS011;9266;51.132;17.062;2022-08-02T15:09:02;2.85;;;2.45;;
18280;SDS011;9266;51.132;17.062;2022-08-02T15:11:30;2.00;;;1.90;;
18280;SDS011;9266;51.132;17.062;2022-08-02T15:13:58;3.50;;;2.20;;
18280;SDS011;9266;51.132;17.062;2022-08-02T15:16:25;6.00;;;2.40;;
18280;SDS011;9266;51.132;17.062;2022-08-02T15:18:55;2.60;;;2.40;;
18280;SDS011;9266;51.132;17.062;2022-08-02T15:21:22;6.03;;;2.50;;
18280;SDS011;9266;51.132;17.062;2022-08-02T15:23:51;3.90;;;2.50;;
18280;SDS011;9266;51.132;17.062;2022-08-02T15:26:18;3.95;;;2.63;;
18280;SDS011;9266;51.132;17.062;2022-08-02T15:28:45;2.78;;;2.50;;
18280;SDS011;9266;51.132;17.062;2022-08-02T15:31:13;3.95;;;2.20;;
18280;SDS011;9266;51.132;17.062;2022-08-02T15:33:41;3.83;;;2.30;;
18280;SDS011;9266;51.132;17.062;2022-08-02T15:36:09;3.13;;;2.55;;
18280;SDS011;9266;51.132;17.062;2022-08-02T15:38:37;3.22;;;2.55;;
18280;SDS011;9266;51.132;17.062;2022-08-02T15:41:05;2.63;;;2.35;;
18280;SDS011;9266;51.132;17.062;2022-08-02T15:43:34;2.30;;;2.10;;
18280;SDS011;9266;51.132;17.062;2022-08-02T15:46:01;2.83;;;2.40;;
18280;SDS011;9266;51.132;17.062;2022-08-02T15:48:30;4.18;;;2.30;;
18280;SDS011;9266;51.132;17.062;2022-08-02T15:50:59;4.00;;;2.55;;
18280;SDS011;9266;51.132;17.062;2022-08-02T15:53:25;4.15;;;2.55;;
18280;SDS011;9266;51.132;17.062;2022-08-02T15:55:54;3.35;;;2.60;;
18280;SDS011;9266;51.132;17.062;2022-08-02T15:58:22;3.80;;;2.13;;
18280;SDS011;9266;51.132;17.062;2022-08-02T16:00:51;4.70;;;2.72;;
18280;SDS011;9266;51.132;17.062;2022-08-02T16:03:18;3.30;;;2.53;;
18280;SDS011;9266;51.132;17.062;2022-08-02T16:05:45;2.50;;;2.30;;
18280;SDS011;9266;51.132;17.062;2022-08-02T16:08:13;3.22;;;2.42;;
18280;SDS011;9266;51.132;17.062;2022-08-02T16:10:40;3.00;;;2.50;;
18280;SDS011;9266;51.132;17.062;2022-08-02T16:13:08;4.30;;;2.30;;
18280;SDS011;9266;51.132;17.062;2022-08-02T16:15:55;2.60;;;2.40;;
18280;SDS011;9266;51.132;17.062;2022-08-02T16:18:23;3.40;;;2.40;;
18280;SDS011;9266;51.132;17.062;2022-08-02T16:20:51;4.60;;;2.83;;
18280;SDS011;9266;51.132;17.062;2022-08-02T16:23:18;2.90;;;2.40;;
18280;SDS011;9266;51.132;17.062;2022-08-02T16:25:47;4.35;;;2.78;;
18280;SDS011;9266;51.132;17.062;2022-08-02T16:28:15;3.55;;;2.60;;
18280;SDS011;9266;51.132;17.062;2022-08-02T16:30:44;6.03;;;2.72;;
18280;SDS011;9266;51.132;17.062;2022-08-02T16:33:12;2.50;;;2.30;;
18280;SDS011;9266;51.132;17.062;2022-08-02T16:35:39;4.15;;;2.28;;
18280;SDS011;9266;51.132;17.062;2022-08-02T16:38:07;3.58;;;2.63;;
18280;SDS011;9266;51.132;17.062;2022-08-02T16:40:35;5.45;;;2.30;;
18280;SDS011;9266;51.132;17.062;2022-08-02T16:43:02;2.60;;;2.38;;
18280;SDS011;9266;51.132;17.062;2022-08-02T16:45:29;3.65;;;2.40;;
18280;SDS011;9266;51.132;17.062;2022-08-02T16:47:57;3.70;;;2.40;;
18280;SDS011;9266;51.132;17.062;2022-08-02T16:50:26;2.65;;;2.45;;
18280;SDS011;9266;51.132;17.062;2022-08-02T16:52:57;2.60;;;2.40;;
18280;SDS011;9266;51.132;17.062;2022-08-02T16:55:25;3.05;;;2.25;;
18280;SDS011;9266;51.132;17.062;2022-08-02T16:57:52;4.28;;;2.58;;
18280;SDS011;9266;51.132;17.062;2022-08-02T17:00:19;2.65;;;2.40;;
18280;SDS011;9266;51.132;17.062;2022-08-02T17:02:46;3.60;;;2.30;;
18280;SDS011;9266;51.132;17.062;2022-08-02T17:05:14;4.15;;;2.75;;
18280;SDS011;9266;51.132;17.062;2022-08-02T17:07:44;4.63;;;2.50;;
18280;SDS011;9266;51.132;17.062;2022-08-02T17:10:11;3.60;;;2.35;;
18280;SDS011;9266;51.132;17.062;2022-08-02T17:12:39;4.63;;;2.40;;
18280;SDS011;9266;51.132;17.062;2022-08-02T17:15:07;2.95;;;2.50;;
18280;SDS011;9266;51.132;17.062;2022-08-02T17:17:35;4.10;;;2.58;;
18280;SDS011;9266;51.132;17.062;2022-08-02T17:20:02;3.60;;;2.33;;
18280;SDS011;9266;51.132;17.062;2022-08-02T17:22:32;5.07;;;2.80;;
18280;SDS011;9266;51.132;17.062;2022-08-02T17:25:01;3.22;;;2.63;;
18280;SDS011;9266;51.132;17.062;2022-08-02T17:27:28;3.40;;;2.58;;
18280;SDS011;9266;51.132;17.062;2022-08-02T17:29:55;3.47;;;2.45;;
18280;SDS011;9266;51.132;17.062;2022-08-02T17:32:23;3.78;;;2.45;;
18280;SDS011;9266;51.132;17.062;2022-08-02T17:34:51;4.03;;;2.65;;
18280;SDS011;9266;51.132;17.062;2022-08-02T17:37:18;3.70;;;2.72;;
18280;SDS011;9266;51.132;17.062;2022-08-02T17:39:45;4.18;;;2.92;;
18280;SDS011;9266;51.132;17.062;2022-08-02T17:42:14;3.05;;;2.50;;
18280;SDS011;9266;51.132;17.062;2022-08-02T17:44:41;3.70;;;2.80;;
18280;SDS011;9266;51.132;17.062;2022-08-02T17:47:10;4.97;;;3.08;;
18280;SDS011;9266;51.132;17.062;2022-08-02T17:49:39;3.35;;;2.78;;
18280;SDS011;9266;51.132;17.062;2022-08-02T17:52:06;5.60;;;2.72;;
18280;SDS011;9266;51.132;17.062;2022-08-02T17:54:33;3.83;;;2.83;;
18280;SDS011;9266;51.132;17.062;2022-08-02T17:57:00;5.15;;;2.70;;
18280;SDS011;9266;51.132;17.062;2022-08-02T17:59:29;5.68;;;2.90;;
18280;SDS011;9266;51.132;17.062;2022-08-02T18:01:59;5.45;;;2.75;;
18280;SDS011;9266;51.132;17.062;2022-08-02T18:04:27;3.50;;;2.53;;
18280;SDS011;9266;51.132;17.062;2022-08-02T18:06:55;4.57;;;2.65;;
18280;SDS011;9266;51.132;17.062;2022-08-02T18:09:24;4.88;;;2.67;;
18280;SDS011;9266;51.132;17.062;2022-08-02T18:11:51;3.28;;;2.80;;
18280;SDS011;9266;51.132;17.062;2022-08-02T18:14:18;6.60;;;3.10;;
18280;SDS011;9266;51.132;17.062;2022-08-02T18:16:48;3.20;;;2.90;;
18280;SDS011;9266;51.132;17.062;2022-08-02T18:19:16;4.25;;;2.95;;
18280;SDS011;9266;51.132;17.062;2022-08-02T18:21:44;6.63;;;3.38;;
18280;SDS011;9266;51.132;17.062;2022-08-02T18:24:12;4.63;;;3.17;;
18280;SDS011;9266;51.132;17.062;2022-08-02T18:26:51;4.90;;;3.20;;
18280;SDS011;9266;51.132;17.062;2022-08-02T18:29:18;5.73;;;3.03;;
18280;SDS011;9266;51.132;17.062;2022-08-02T18:31:45;6.73;;;3.10;;
18280;SDS011;9266;51.132;17.062;2022-08-02T18:34:17;5.25;;;3.38;;
18280;SDS011;9266;51.132;17.062;2022-08-02T18:36:45;5.25;;;2.67;;
18280;SDS011;9266;51.132;17.062;2022-08-02T18:39:13;5.50;;;3.20;;
18280;SDS011;9266;51.132;17.062;2022-08-02T18:41:40;6.00;;;3.57;;
18280;SDS011;9266;51.132;17.062;2022-08-02T18:44:09;6.23;;;3.10;;
18280;SDS011;9266;51.132;17.062;2022-08-02T18:46:36;4.87;;;3.30;;
18280;SDS011;9266;51.132;17.062;2022-08-02T18:49:06;7.07;;;3.17;;
18280;SDS011;9266;51.132;17.062;2022-08-02T18:51:34;4.47;;;3.60;;
18280;SDS011;9266;51.132;17.062;2022-08-02T18:54:02;4.00;;;3.10;;
18280;SDS011;9266;51.132;17.062;2022-08-02T18:56:30;6.47;;;3.92;;
18280;SDS011;9266;51.132;17.062;2022-08-02T18:58:58;4.93;;;2.93;;
18280;SDS011;9266;51.132;17.062;2022-08-02T19:01:27;6.40;;;3.60;;
18280;SDS011;9266;51.132;17.062;2022-08-02T19:04:01;4.77;;;2.93;;
18280;SDS011;9266;51.132;17.062;2022-08-02T19:06:35;3.70;;;3.00;;
18280;SDS011;9266;51.132;17.062;2022-08-02T19:09:07;7.27;;;4.30;;
18280;SDS011;9266;51.132;17.062;2022-08-02T19:14:18;4.63;;;3.47;;
18280;SDS011;9266;51.132;17.062;2022-08-02T19:16:57;4.60;;;3.00;;
18280;SDS011;9266;51.132;17.062;2022-08-02T19:19:34;4.27;;;3.27;;
18280;SDS011;9266;51.132;17.062;2022-08-02T19:22:11;6.27;;;3.07;;
18280;SDS011;9266;51.132;17.062;2022-08-02T19:24:38;5.07;;;3.10;;
18280;SDS011;9266;51.132;17.062;2022-08-02T19:27:06;6.07;;;3.77;;
18280;SDS011;9266;51.132;17.062;2022-08-02T19:29:46;5.83;;;3.67;;
18280;SDS011;9266;51.132;17.062;2022-08-02T19:32:25;3.67;;;3.27;;
18280;SDS011;9266;51.132;17.062;2022-08-02T19:34:52;10.30;;;5.07;;
18280;SDS011;9266;51.132;17.062;2022-08-02T19:37:21;6.53;;;3.67;;
18280;SDS011;9266;51.132;17.062;2022-08-02T19:39:48;4.40;;;3.10;;
18280;SDS011;9266;51.132;17.062;2022-08-02T19:42:15;4.07;;;3.17;;
18280;SDS011;9266;51.132;17.062;2022-08-02T19:44:42;4.43;;;3.07;;
18280;SDS011;9266;51.132;17.062;2022-08-02T19:47:09;5.60;;;3.30;;
18280;SDS011;9266;51.132;17.062;2022-08-02T19:49:36;5.80;;;3.30;;
18280;SDS011;9266;51.132;17.062;2022-08-02T19:52:03;5.53;;;3.43;;
18280;SDS011;9266;51.132;17.062;2022-08-02T19:54:32;4.20;;;3.00;;
18280;SDS011;9266;51.132;17.062;2022-08-02T19:56:59;6.77;;;3.60;;
18280;SDS011;9266;51.132;17.062;2022-08-02T19:59:27;5.77;;;3.67;;
18280;SDS011;9266;51.132;17.062;2022-08-02T20:01:54;8.30;;;3.53;;
18280;SDS011;9266;51.132;17.062;2022-08-02T20:04:21;4.67;;;3.73;;
18280;SDS011;9266;51.132;17.062;2022-08-02T20:06:48;5.93;;;3.60;;
18280;SDS011;9266;51.132;17.062;2022-08-02T20:09:16;8.40;;;4.37;;
18280;SDS011;9266;51.132;17.062;2022-08-02T20:11:45;4.83;;;3.70;;
18280;SDS011;9266;51.132;17.062;2022-08-02T20:14:12;7.70;;;3.80;;
18280;SDS011;9266;51.132;17.062;2022-08-02T20:16:39;5.07;;;3.60;;
18280;SDS011;9266;51.132;17.062;2022-08-02T20:19:06;9.67;;;3.60;;
18280;SDS011;9266;51.132;17.062;2022-08-02T20:21:33;6.40;;;3.77;;
18280;SDS011;9266;51.132;17.062;2022-08-02T20:24:00;5.50;;;3.57;;
18280;SDS011;9266;51.132;17.062;2022-08-02T20:26:27;3.80;;;3.30;;
18280;SDS011;9266;51.132;17.062;2022-08-02T20:28:56;6.00;;;3.90;;
18280;SDS011;9266;51.132;17.062;2022-08-02T20:31:23;4.07;;;3.63;;